createdAt,value
2022-09-28T00:01:22.020Z,3.92
2022-09-28T00:03:51.892Z,4.35
2022-09-28T00:06:22.059Z,4.15
2022-09-28T00:08:52.664Z,3.65
2022-09-28T00:11:21.882Z,3.45
2022-09-28T00:13:51.811Z,4.18
2022-09-28T00:16:23.366Z,3.78
2022-09-28T00:18:51.578Z,4.53
2022-09-28T00:21:22.459Z,4.28
2022-09-28T00:24:15.004Z,3.83
2022-09-28T00:26:50.470Z,4.60
2022-09-28T00:29:22.672Z,3.67
2022-09-28T00:32:03.057Z,4.18
2022-09-28T00:34:33.891Z,4.85
2022-09-28T00:37:03.500Z,4.10
2022-09-28T00:39:35.989Z,5.13
2022-09-28T00:42:05.622Z,4.10
2022-09-28T00:44:41.757Z,4.60
2022-09-28T00:47:45.551Z,4.45
2022-09-28T00:50:25.771Z,3.60
2022-09-28T00:52:53.330Z,4.43
2022-09-28T00:55:44.867Z,4.15
2022-09-28T00:58:19.517Z,4.20
2022-09-28T01:00:48.532Z,4.30
2022-09-28T01:03:17.200Z,4.10
2022-09-28T01:05:45.960Z,5.25
2022-09-28T01:08:14.403Z,4.75
2022-09-28T01:10:43.871Z,5.07
2022-09-28T01:13:13.804Z,3.72
2022-09-28T01:15:59.788Z,4.47
2022-09-28T01:19:00.519Z,4.35
2022-09-28T01:21:49.135Z,5.35
2022-09-28T01:24:43.412Z,4.80
2022-09-28T01:27:14.023Z,3.55
2022-09-28T01:29:53.517Z,4.85
2022-09-28T01:32:35.836Z,4.78
2022-09-28T01:35:26.394Z,8.88
2022-09-28T01:38:05.308Z,4.88
2022-09-28T01:40:35.236Z,4.30
2022-09-28T01:43:06.928Z,4.78
2022-09-28T01:45:49.221Z,4.45
2022-09-28T01:48:24.984Z,4.90
2022-09-28T01:50:58.132Z,4.72
2022-09-28T01:53:32.317Z,4.75
2022-09-28T01:56:10.125Z,4.95
2022-09-28T01:58:44.169Z,4.15
2022-09-28T02:01:31.933Z,4.28
2022-09-28T02:04:14.346Z,3.97
2022-09-28T02:07:12.868Z,4.40
2022-09-28T02:09:58.633Z,4.63
2022-09-28T02:12:48.843Z,9.45
2022-09-28T02:15:36.291Z,5.07
2022-09-28T02:18:04.380Z,6.18
2022-09-28T02:20:34.491Z,5.65
2022-09-28T02:23:04.659Z,6.20
2022-09-28T02:25:45.689Z,5.45
2022-09-28T02:28:14.218Z,5.72
2022-09-28T02:33:20.193Z,4.78
2022-09-28T02:35:48.910Z,5.65
2022-09-28T02:38:18.393Z,5.28
2022-09-28T02:40:57.780Z,6.82
2022-09-28T02:43:45.475Z,6.13
2022-09-28T02:46:35.651Z,5.68
2022-09-28T02:49:31.206Z,5.55
2022-09-28T02:52:23.041Z,6.07
2022-09-28T02:55:06.374Z,6.18
2022-09-28T02:58:12.375Z,5.68
2022-09-28T03:01:07.116Z,6.72
2022-09-28T03:03:47.871Z,7.65
2022-09-28T03:06:44.002Z,7.88
2022-09-28T03:09:12.252Z,7.03
2022-09-28T03:11:53.138Z,6.32
2022-09-28T03:14:21.328Z,5.57
2022-09-28T03:16:57.914Z,6.10
2022-09-28T03:19:33.466Z,5.57
2022-09-28T03:22:01.923Z,6.70
2022-09-28T03:24:29.551Z,6.07
2022-09-28T03:26:57.151Z,5.85
2022-09-28T03:29:24.837Z,6.85
2022-09-28T03:31:58.899Z,7.50
2022-09-28T03:34:26.522Z,6.70
2022-09-28T03:36:54.213Z,7.72
2022-09-28T03:39:22.228Z,8.57
2022-09-28T03:41:49.733Z,8.32
2022-09-28T03:44:19.772Z,13.55
2022-09-28T03:46:48.685Z,9.48
2022-09-28T03:49:16.378Z,9.05
2022-09-28T03:52:19.705Z,9.10
2022-09-28T03:54:49.361Z,31.23
2022-09-28T03:57:17.313Z,7.70
2022-09-28T03:59:44.921Z,10.43
2022-09-28T04:02:12.521Z,35.70
2022-09-28T04:04:40.652Z,11.90
2022-09-28T04:07:08.547Z,6.75
2022-09-28T04:09:36.192Z,13.23
2022-09-28T04:12:04.658Z,17.33
2022-09-28T04:14:33.834Z,7.47
2022-09-28T04:17:01.780Z,8.75
2022-09-28T04:19:31.926Z,9.15
2022-09-28T04:22:18.987Z,10.30
2022-09-28T04:24:46.808Z,9.38
2022-09-28T04:27:33.390Z,27.15
2022-09-28T04:30:03.064Z,8.60
2022-09-28T04:32:34.075Z,10.38
2022-09-28T04:37:31.339Z,10.98
2022-09-28T04:39:59.033Z,22.92
2022-09-28T04:42:26.975Z,25.77
2022-09-28T04:44:54.630Z,9.05
2022-09-28T04:47:22.705Z,7.82
2022-09-28T04:50:22.602Z,12.07
2022-09-28T04:53:18.626Z,9.45
2022-09-28T04:58:23.374Z,13.23
2022-09-28T05:00:51.851Z,14.07
2022-09-28T05:03:42.529Z,9.45
2022-09-28T05:06:28.653Z,9.93
2022-09-28T05:09:02.846Z,10.25
2022-09-28T05:11:30.797Z,10.70
2022-09-28T05:16:26.887Z,22.52
2022-09-28T05:19:12.959Z,21.83
2022-09-28T05:21:46.028Z,27.13
2022-09-28T05:24:13.870Z,20.95
2022-09-28T05:26:44.876Z,33.03
2022-09-28T05:29:12.590Z,14.93
2022-09-28T05:31:40.445Z,17.15
2022-09-28T05:34:19.842Z,15.20
2022-09-28T05:36:47.543Z,23.85
2022-09-28T05:39:15.196Z,26.88
2022-09-28T05:41:42.821Z,20.83
2022-09-28T05:44:11.023Z,22.30
2022-09-28T05:46:38.615Z,18.27
2022-09-28T05:49:06.246Z,18.45
2022-09-28T05:51:33.798Z,18.05
2022-09-28T05:54:05.689Z,25.73
2022-09-28T05:56:35.773Z,30.20
2022-09-28T05:59:06.292Z,19.75
2022-09-28T06:01:34.658Z,21.88
2022-09-28T06:04:03.458Z,23.85
2022-09-28T06:06:32.591Z,23.63
2022-09-28T06:09:00.422Z,21.98
2022-09-28T06:11:35.316Z,19.08
2022-09-28T06:14:09.689Z,15.20
2022-09-28T06:16:41.644Z,16.83
2022-09-28T06:19:12.396Z,18.42
2022-09-28T06:22:08.866Z,13.10
2022-09-28T06:24:45.566Z,13.05
2022-09-28T06:27:13.428Z,25.63
2022-09-28T06:29:40.907Z,17.27
2022-09-28T06:32:09.069Z,16.67
2022-09-28T06:34:38.687Z,21.52
2022-09-28T06:37:06.305Z,24.73
2022-09-28T06:39:34.215Z,15.70
2022-09-28T06:42:03.399Z,15.73
2022-09-28T06:44:51.893Z,14.43
2022-09-28T06:47:33.458Z,21.55
2022-09-28T06:50:14.551Z,17.58
2022-09-28T06:53:07.341Z,14.35
2022-09-28T06:55:56.165Z,16.90
2022-09-28T06:58:24.280Z,15.55
2022-09-28T07:00:52.377Z,20.83
2022-09-28T07:03:22.804Z,14.52
2022-09-28T07:06:12.148Z,16.92
2022-09-28T07:09:18.408Z,16.48
2022-09-28T07:12:13.213Z,15.50
2022-09-28T07:15:02.532Z,16.40
2022-09-28T07:17:32.049Z,18.65
2022-09-28T07:20:15.515Z,17.33
2022-09-28T07:22:47.996Z,15.23
2022-09-28T07:25:20.498Z,13.13
2022-09-28T07:28:14.636Z,14.88
2022-09-28T07:31:03.454Z,15.70
2022-09-28T07:34:00.299Z,13.80
2022-09-28T07:36:36.630Z,16.95
2022-09-28T07:39:04.468Z,15.80
2022-09-28T07:41:35.128Z,17.92
2022-09-28T07:44:06.928Z,19.40
2022-09-28T07:46:37.207Z,22.05
2022-09-28T07:49:12.378Z,20.77
2022-09-28T07:52:13.047Z,23.55
2022-09-28T07:55:02.219Z,25.40
2022-09-28T07:58:05.155Z,22.33
2022-09-28T08:00:50.399Z,21.33
2022-09-28T08:03:20.258Z,24.30
2022-09-28T08:05:48.205Z,22.27
2022-09-28T08:08:16.506Z,24.05
2022-09-28T08:10:47.292Z,19.52
2022-09-28T08:13:39.072Z,7.15
2022-09-28T08:19:15.206Z,4.30
2022-09-28T08:21:45.562Z,3.25
2022-09-28T08:24:15.822Z,4.05
2022-09-28T08:26:44.744Z,5.68
2022-09-28T08:29:16.219Z,3.30
2022-09-28T08:31:52.468Z,3.65
2022-09-28T08:34:41.562Z,4.35
2022-09-28T08:37:31.016Z,3.70
2022-09-28T08:43:07.419Z,3.75
2022-09-28T08:46:10.202Z,3.70
2022-09-28T08:49:24.854Z,4.63
2022-09-28T08:52:17.989Z,3.65
2022-09-28T08:55:31.289Z,4.25
2022-09-28T08:58:20.446Z,3.20
2022-09-28T09:00:54.296Z,5.20
2022-09-28T09:03:42.626Z,4.53
2022-09-28T09:07:04.662Z,5.20
2022-09-28T09:10:00.017Z,2.40
2022-09-28T09:15:31.293Z,4.18
2022-09-28T09:18:14.589Z,5.25
2022-09-28T09:21:10.436Z,4.43
2022-09-28T09:24:02.926Z,3.63
2022-09-28T09:26:39.652Z,4.38
2022-09-28T09:29:36.573Z,4.57
2022-09-28T09:32:08.233Z,3.78
2022-09-28T09:34:46.947Z,4.40
2022-09-28T09:37:58.625Z,5.13
2022-09-28T09:41:10.351Z,3.00
2022-09-28T09:44:11.875Z,2.28
2022-09-28T09:47:04.898Z,4.45
2022-09-28T09:49:45.853Z,2.08
2022-09-28T09:55:04.132Z,4.10
2022-09-28T09:57:53.157Z,3.90
2022-09-28T10:00:47.458Z,2.78
2022-09-28T10:03:31.191Z,3.45
2022-09-28T10:06:36.425Z,2.45
2022-09-28T10:09:13.617Z,2.30
2022-09-28T10:11:44.870Z,2.60
2022-09-28T10:14:21.526Z,3.47
2022-09-28T10:17:03.951Z,3.38
2022-09-28T10:20:04.237Z,3.80
2022-09-28T10:22:56.676Z,2.38
2022-09-28T10:25:25.198Z,3.35
2022-09-28T10:27:52.902Z,2.80
2022-09-28T10:32:59.292Z,3.28
2022-09-28T10:35:42.164Z,3.47
2022-09-28T10:38:19.018Z,4.22
2022-09-28T10:40:59.482Z,2.80
2022-09-28T10:43:50.712Z,3.60
2022-09-28T10:46:24.430Z,3.22
2022-09-28T10:49:15.663Z,4.43
2022-09-28T10:51:56.612Z,3.65
2022-09-28T10:54:38.804Z,6.40
2022-09-28T10:57:42.915Z,5.50
2022-09-28T11:00:34.766Z,6.43
2022-09-28T11:03:26.595Z,4.72
2022-09-28T11:06:00.190Z,4.63
2022-09-28T11:08:45.823Z,3.50
2022-09-28T11:11:22.226Z,3.30
2022-09-28T11:14:01.453Z,3.53
2022-09-28T11:16:35.103Z,5.07
2022-09-28T11:19:28.959Z,3.72
2022-09-28T11:21:56.516Z,3.40
2022-09-28T11:24:33.342Z,3.05
2022-09-28T11:27:04.358Z,2.63
2022-09-28T11:29:43.041Z,3.10
2022-09-28T11:32:25.697Z,2.97
2022-09-28T11:35:28.094Z,3.15
2022-09-28T11:38:15.402Z,3.53
2022-09-28T11:41:25.962Z,2.25
2022-09-28T11:44:15.365Z,1.85
2022-09-28T11:46:46.241Z,3.63
2022-09-28T11:49:20.061Z,3.90
2022-09-28T11:51:49.815Z,2.65
2022-09-28T11:54:38.688Z,2.90
2022-09-28T11:57:14.863Z,3.67
2022-09-28T12:00:01.252Z,2.42
2022-09-28T12:02:35.478Z,2.17
2022-09-28T12:05:27.041Z,1.60
2022-09-28T12:08:20.842Z,2.03
2022-09-28T12:11:39.197Z,1.70
2022-09-28T12:14:34.411Z,1.45
2022-09-28T12:17:23.809Z,1.58
2022-09-28T12:19:58.568Z,1.45
2022-09-28T12:22:34.954Z,1.40
2022-09-28T12:25:05.135Z,1.38
2022-09-28T12:27:43.796Z,1.10
2022-09-28T12:30:25.220Z,0.98
2022-09-28T12:33:04.100Z,1.15
2022-09-28T12:35:34.749Z,1.50
2022-09-28T12:38:21.279Z,0.80
2022-09-28T12:41:07.849Z,1.10
2022-09-28T12:44:09.950Z,1.55
2022-09-28T12:46:46.790Z,1.08
2022-09-28T12:52:32.607Z,1.20
2022-09-28T12:55:17.411Z,0.68
2022-09-28T12:58:22.305Z,1.00
2022-09-28T13:01:22.145Z,1.23
2022-09-28T13:04:27.235Z,0.95
2022-09-28T13:07:15.995Z,0.80
2022-09-28T13:10:14.748Z,0.85
2022-09-28T13:13:13.438Z,0.75
2022-09-28T13:15:43.924Z,0.63
2022-09-28T13:18:16.185Z,0.93
2022-09-28T13:21:10.053Z,1.55
2022-09-28T13:23:47.092Z,1.00
2022-09-28T13:26:17.637Z,1.35
2022-09-28T13:28:47.185Z,0.70
2022-09-28T13:31:22.181Z,0.80
2022-09-28T13:33:51.374Z,1.05
2022-09-28T13:36:28.012Z,1.20
2022-09-28T13:38:59.543Z,1.00
2022-09-28T13:41:36.691Z,0.93
2022-09-28T13:44:07.059Z,1.00
2022-09-28T13:47:12.708Z,0.90
2022-09-28T13:50:08.005Z,0.98
2022-09-28T13:52:50.569Z,0.80
2022-09-28T13:55:27.011Z,0.98
2022-09-28T13:58:15.596Z,0.90
2022-09-28T14:01:05.005Z,1.02
2022-09-28T14:03:54.707Z,0.63
2022-09-28T14:06:31.974Z,0.75
2022-09-28T14:09:09.152Z,1.02
2022-09-28T14:11:37.185Z,1.13
2022-09-28T14:14:11.949Z,0.88
2022-09-28T14:16:41.137Z,0.93
2022-09-28T14:19:09.138Z,0.93
2022-09-28T14:21:47.983Z,1.10
2022-09-28T14:24:26.614Z,0.88
2022-09-28T14:26:54.124Z,0.90
2022-09-28T14:29:28.481Z,0.75
2022-09-28T14:32:09.057Z,0.85
2022-09-28T14:34:41.241Z,0.50
2022-09-28T14:37:46.020Z,0.60
2022-09-28T14:40:36.714Z,0.52
2022-09-28T14:43:26.340Z,0.55
2022-09-28T14:46:20.082Z,0.70
2022-09-28T14:48:54.451Z,0.90
2022-09-28T14:51:30.381Z,0.90
2022-09-28T14:54:03.485Z,0.60
2022-09-28T14:56:40.315Z,1.25
2022-09-28T14:59:18.382Z,0.70
2022-09-28T15:01:52.194Z,0.80
2022-09-28T15:04:20.805Z,0.70
2022-09-28T15:06:50.531Z,0.68
2022-09-28T15:09:35.365Z,0.98
2022-09-28T15:12:10.263Z,0.75
2022-09-28T15:14:51.326Z,0.90
2022-09-28T15:17:29.327Z,0.98
2022-09-28T15:20:06.239Z,0.90
2022-09-28T15:22:34.158Z,1.10
2022-09-28T15:27:36.478Z,0.65
2022-09-28T15:30:25.329Z,1.25
2022-09-28T15:32:56.739Z,0.63
2022-09-28T15:35:28.453Z,0.43
2022-09-28T15:37:56.317Z,0.73
2022-09-28T15:40:33.628Z,0.85
2022-09-28T15:43:02.579Z,0.70
2022-09-28T15:45:40.004Z,0.60
2022-09-28T15:48:32.920Z,1.17
2022-09-28T15:51:10.266Z,0.90
2022-09-28T15:53:56.210Z,1.05
2022-09-28T15:56:24.764Z,1.20
2022-09-28T15:59:18.870Z,0.90
2022-09-28T16:01:47.746Z,0.93
2022-09-28T16:04:34.052Z,0.93
2022-09-28T16:07:20.790Z,1.15
2022-09-28T16:10:12.047Z,0.97
2022-09-28T16:12:56.532Z,0.77
2022-09-28T16:15:37.147Z,0.60
2022-09-28T16:18:22.049Z,0.68
2022-09-28T16:20:52.665Z,0.80
2022-09-28T16:23:21.982Z,0.90
2022-09-28T16:25:52.577Z,1.17
2022-09-28T16:28:38.247Z,1.27
2022-09-28T16:31:15.065Z,0.90
2022-09-28T16:33:52.510Z,0.80
2022-09-28T16:36:22.374Z,0.90
2022-09-28T16:38:50.168Z,0.65
2022-09-28T16:41:21.791Z,0.73
2022-09-28T16:43:55.191Z,0.70
2022-09-28T16:46:29.703Z,0.80
2022-09-28T16:49:00.117Z,0.98
2022-09-28T16:51:28.610Z,0.70
2022-09-28T16:54:34.767Z,0.88
2022-09-28T16:57:04.289Z,0.90
2022-09-28T16:59:32.610Z,1.10
2022-09-28T17:02:00.443Z,0.70
2022-09-28T17:04:28.279Z,0.60
2022-09-28T17:06:56.539Z,1.00
2022-09-28T17:09:24.276Z,0.75
2022-09-28T17:11:57.050Z,0.60
2022-09-28T17:14:25.318Z,1.00
2022-09-28T17:17:13.740Z,0.80
2022-09-28T17:19:42.406Z,0.40
2022-09-28T17:22:10.541Z,0.70
2022-09-28T17:24:38.115Z,0.85
2022-09-28T17:27:07.039Z,1.30
2022-09-28T17:29:34.657Z,0.57
2022-09-28T17:32:02.753Z,0.80
2022-09-28T17:34:30.770Z,0.55
2022-09-28T17:39:26.561Z,1.58
2022-09-28T17:41:54.300Z,1.15
2022-09-28T17:44:22.170Z,1.10
2022-09-28T17:46:51.242Z,0.98
2022-09-28T17:49:19.237Z,1.42
2022-09-28T17:51:47.438Z,1.10
2022-09-28T17:54:16.951Z,0.80
2022-09-28T17:56:44.801Z,1.15
2022-09-28T17:59:18.192Z,0.75
2022-09-28T18:01:45.973Z,1.13
2022-09-28T18:04:33.275Z,1.02
2022-09-28T18:07:02.546Z,0.68
2022-09-28T18:09:30.348Z,0.90
2022-09-28T18:14:31.414Z,1.20
2022-09-28T18:16:59.312Z,1.23
2022-09-28T18:19:31.170Z,1.10
2022-09-28T18:22:01.520Z,1.30
2022-09-28T18:24:29.674Z,1.50
2022-09-28T18:26:57.571Z,1.33
2022-09-28T18:29:25.274Z,0.85
2022-09-28T18:31:53.032Z,1.25
2022-09-28T18:34:21.050Z,1.90
2022-09-28T18:36:48.451Z,1.75
2022-09-28T18:39:16.162Z,1.02
2022-09-28T18:41:44.118Z,1.33
2022-09-28T18:44:12.165Z,1.35
2022-09-28T18:46:42.850Z,1.30
2022-09-28T18:49:10.662Z,1.70
2022-09-28T18:51:38.693Z,1.85
2022-09-28T18:54:07.642Z,2.20
2022-09-28T18:56:37.884Z,2.33
2022-09-28T18:59:11.738Z,2.50
2022-09-28T19:01:41.855Z,2.60
2022-09-28T19:04:11.578Z,4.32
2022-09-28T19:06:42.069Z,3.58
2022-09-28T19:11:35.201Z,3.00
2022-09-28T19:14:03.690Z,3.38
2022-09-28T19:16:34.237Z,2.78
2022-09-28T19:19:03.366Z,2.38
2022-09-28T19:21:31.383Z,1.75
2022-09-28T19:24:03.038Z,1.70
2022-09-28T19:26:31.368Z,1.52
2022-09-28T19:29:00.297Z,1.92
2022-09-28T19:31:30.337Z,1.63
2022-09-28T19:33:58.436Z,1.98
2022-09-28T19:36:28.676Z,1.50
2022-09-28T19:38:58.197Z,2.13
2022-09-28T19:42:06.240Z,1.33
2022-09-28T19:44:35.766Z,1.30
2022-09-28T19:47:10.162Z,1.30
2022-09-28T19:49:40.744Z,1.60
2022-09-28T19:52:16.999Z,1.33
2022-09-28T19:54:55.799Z,1.40
2022-09-28T19:57:30.547Z,1.80
2022-09-28T20:00:02.773Z,1.27
2022-09-28T20:02:37.457Z,1.58
2022-09-28T20:05:06.902Z,1.30
2022-09-28T20:07:36.664Z,1.45
2022-09-28T20:10:05.720Z,1.70
2022-09-28T20:12:34.900Z,1.30
2022-09-28T20:15:03.566Z,1.50
2022-09-28T20:17:32.756Z,1.55
2022-09-28T20:20:03.831Z,1.60
2022-09-28T20:22:32.700Z,1.40
2022-09-28T20:25:03.061Z,1.38
2022-09-28T20:27:31.993Z,1.33
2022-09-28T20:30:00.522Z,1.58
2022-09-28T20:32:32.686Z,1.70
2022-09-28T20:35:02.309Z,1.90
2022-09-28T20:37:31.049Z,1.60
2022-09-28T20:40:00.963Z,1.73
2022-09-28T20:42:30.147Z,1.55
2022-09-28T20:44:58.328Z,1.38
2022-09-28T20:49:53.508Z,1.85
2022-09-28T20:52:21.071Z,1.48
2022-09-28T20:54:48.616Z,1.80
2022-09-28T20:57:19.127Z,1.73
2022-09-28T20:59:50.990Z,2.00
2022-09-28T21:02:22.518Z,1.45
2022-09-28T21:04:50.169Z,1.60
2022-09-28T21:07:17.834Z,1.77
2022-09-28T21:09:45.371Z,2.22
2022-09-28T21:12:13.821Z,1.65
2022-09-28T21:14:41.392Z,1.90
2022-09-28T21:17:08.946Z,1.40
2022-09-28T21:19:37.118Z,2.08
2022-09-28T21:22:04.647Z,2.17
2022-09-28T21:24:32.208Z,1.90
2022-09-28T21:26:59.907Z,1.30
2022-09-28T21:29:28.007Z,1.60
2022-09-28T21:31:55.762Z,2.05
2022-09-28T21:34:24.465Z,1.73
2022-09-28T21:36:52.645Z,2.40
2022-09-28T21:39:20.985Z,2.28
2022-09-28T21:41:48.441Z,2.20
2022-09-28T21:44:16.657Z,2.17
2022-09-28T21:46:44.421Z,1.80
2022-09-28T21:49:13.443Z,2.03
2022-09-28T21:51:41.220Z,2.10
2022-09-28T21:54:08.814Z,3.30
2022-09-28T21:56:36.738Z,3.28
2022-09-28T21:59:04.295Z,1.98
2022-09-28T22:01:32.319Z,2.08
2022-09-28T22:04:00.183Z,1.65
2022-09-28T22:06:28.350Z,2.40
2022-09-28T22:08:56.913Z,3.13
2022-09-28T22:11:27.480Z,2.70
2022-09-28T22:13:59.710Z,3.30
2022-09-28T22:16:30.390Z,3.88
2022-09-28T22:18:59.575Z,4.20
2022-09-28T22:21:32.938Z,4.15
2022-09-28T22:24:06.666Z,4.53
2022-09-28T22:26:36.394Z,3.80
2022-09-28T22:29:09.280Z,3.58
2022-09-28T22:32:02.127Z,3.00
2022-09-28T22:34:31.759Z,4.03
2022-09-28T22:36:59.661Z,4.22
2022-09-28T22:39:27.303Z,3.97
2022-09-28T22:41:55.155Z,4.60
2022-09-28T22:44:22.802Z,4.30
2022-09-28T22:46:50.611Z,5.40
2022-09-28T22:49:18.523Z,5.57
2022-09-28T22:51:46.366Z,5.45
2022-09-28T22:54:16.764Z,5.47
2022-09-28T22:56:44.386Z,5.00
2022-09-28T22:59:12.505Z,4.47
2022-09-28T23:01:40.166Z,5.00
2022-09-28T23:04:09.609Z,4.75
2022-09-28T23:06:37.317Z,5.50
2022-09-28T23:09:05.251Z,5.95
2022-09-28T23:11:32.885Z,5.35
2022-09-28T23:14:00.882Z,6.63
2022-09-28T23:18:58.193Z,6.13
2022-09-28T23:21:27.422Z,7.13
2022-09-28T23:24:01.692Z,7.07
2022-09-28T23:26:34.401Z,6.43
2022-09-28T23:29:02.029Z,5.63
2022-09-28T23:31:32.113Z,6.32
2022-09-28T23:34:01.820Z,5.70
2022-09-28T23:36:30.106Z,6.65
2022-09-28T23:41:25.766Z,7.15
2022-09-28T23:43:54.016Z,7.03
2022-09-28T23:46:21.919Z,4.57
2022-09-28T23:48:50.234Z,7.00
2022-09-28T23:51:18.364Z,6.88
2022-09-28T23:53:46.431Z,7.43
2022-09-28T23:58:42.339Z,11.85
